Time;durP1;ratioP1;P1;durP2;ratioP2;P2;SDS_P1;SDS_P2;PMS_P1;PMS_P2;Temp;Humidity;BMP_temperature;BMP_pressure;BME280_temperature;BME280_humidity;BME280_pressure;Samples;Min_cycle;Max_cycle;Signal;HPM_P1;HPM_P2
2022/06/05 00:02:00;;;;;;;6.00;4.80;;;;;;;10.43;100.00;102301.53;5039060;28;20187;-70
2022/06/05 00:04:37;;;;;;;7.57;5.20;;;;;;;10.72;100.00;102346.75;5035733;28;20187;-70
2022/06/05 00:07:02;;;;;;;5.17;4.50;;;;;;;10.74;100.00;102338.53;5036226;28;20505;-71
2022/06/05 00:09:34;;;;;;;5.73;4.73;;;;;;;10.79;100.00;102339.72;5032131;28;20542;-71
2022/06/05 00:11:59;;;;;;;7.77;5.27;;;;;;;10.79;100.00;102341.56;5037241;28;20246;-70
2022/06/05 00:14:25;;;;;;;7.80;5.73;;;;;;;10.66;100.00;102317.03;5046204;23;20423;-68
2022/06/05 00:16:51;;;;;;;6.00;5.40;;;;;;;10.77;100.00;102335.53;5074762;28;20199;-68
2022/06/05 00:19:16;;;;;;;6.93;4.97;;;;;;;10.65;100.00;102281.31;5064619;28;20192;-69
2022/06/05 00:21:42;;;;;;;8.87;5.60;;;;;;;10.14;100.00;102206.19;5067013;28;20516;-69
2022/06/05 00:24:08;;;;;;;7.30;5.17;;;;;;;10.91;100.00;102332.22;5065504;28;20194;-69
2022/06/05 00:26:39;;;;;;;6.40;4.57;;;;;;;10.95;100.00;102324.66;5062284;28;20186;-68
2022/06/05 00:29:21;;;;;;;7.20;4.23;;;;;;;10.83;100.00;102306.19;5069992;28;20189;-69
2022/06/05 00:32:02;;;;;;;6.83;5.10;;;;;;;10.89;100.00;102317.28;5068871;28;20437;-69
2022/06/05 00:34:27;;;;;;;7.60;4.57;;;;;;;10.57;100.00;102289.34;5069932;28;20471;-69
2022/06/05 00:37:12;;;;;;;4.93;4.47;;;;;;;10.94;100.00;102313.09;5069063;28;20443;-69
2022/06/05 00:39:59;;;;;;;6.17;4.83;;;;;;;10.88;100.00;102310.19;5064393;28;20190;-69
2022/06/05 00:42:27;;;;;;;7.03;4.67;;;;;;;10.86;100.00;102292.44;5065992;28;20868;-69
2022/06/05 00:44:55;;;;;;;4.67;4.20;;;;;;;10.71;100.00;102263.72;5062590;28;20456;-69
2022/06/05 00:47:24;;;;;;;9.40;4.90;;;;;;;10.98;100.00;102292.09;5068266;28;20447;-69
2022/06/05 00:50:09;;;;;;;5.90;4.73;;;;;;;10.94;100.00;102302.34;5062796;28;20564;-69
2022/06/05 00:52:38;;;;;;;6.00;5.20;;;;;;;10.98;100.00;102303.69;5059978;28;20486;-68
2022/06/05 00:55:05;;;;;;;6.33;4.50;;;;;;;10.90;100.00;102290.25;5062706;28;20808;-70
2022/06/05 00:57:33;;;;;;;5.63;4.83;;;;;;;10.94;100.00;102283.56;5064404;28;20446;-69
2022/06/05 01:00:01;;;;;;;8.80;5.83;;;;;;;11.00;100.00;102307.06;5065036;28;20442;-69
2022/06/05 01:02:28;;;;;;;7.60;5.37;;;;;;;10.74;100.00;102258.88;5066654;28;20445;-69
2022/06/05 01:04:54;;;;;;;8.43;5.67;;;;;;;10.96;100.00;102291.44;5067174;28;20465;-69
2022/06/05 01:07:21;;;;;;;8.67;6.27;;;;;;;10.85;100.00;102281.88;5063362;28;20450;-69
2022/06/05 01:09:49;;;;;;;9.47;6.30;;;;;;;10.45;100.00;102216.38;5059990;28;20608;-70
2022/06/05 01:12:23;;;;;;;10.27;5.70;;;;;;;10.92;100.00;102292.78;5064392;28;20472;-69
2022/06/05 01:15:07;;;;;;;6.37;5.53;;;;;;;10.88;100.00;102291.41;5062586;28;20487;-69
2022/06/05 01:17:46;;;;;;;7.27;6.20;;;;;;;10.84;100.00;102296.28;5063635;28;20483;-69
2022/06/05 01:20:35;;;;;;;8.77;6.87;;;;;;;10.79;100.00;102282.50;5066587;28;20551;-70
2022/06/05 01:23:09;;;;;;;8.00;6.63;;;;;;;10.76;100.00;102272.09;5063303;28;20441;-70
2022/06/05 01:25:44;;;;;;;8.90;6.10;;;;;;;10.79;100.00;102266.41;5063827;28;20469;-70
2022/06/05 01:28:17;;;;;;;7.40;6.27;;;;;;;10.27;100.00;102162.88;5061795;28;20440;-71
2022/06/05 01:30:51;;;;;;;7.57;6.50;;;;;;;10.83;100.00;102262.41;5059138;28;20461;-70
2022/06/05 01:33:23;;;;;;;9.63;7.13;;;;;;;10.91;100.00;102253.53;5067256;28;20945;-71
2022/06/05 01:36:03;;;;;;;8.97;6.50;;;;;;;10.74;100.00;102231.19;5067063;28;20460;-71
2022/06/05 01:38:38;;;;;;;10.67;7.30;;;;;;;10.67;100.00;102214.06;5063020;28;20451;-71
2022/06/05 01:41:13;;;;;;;9.60;7.23;;;;;;;10.37;100.00;102170.75;5069165;28;20519;-70
2022/06/05 01:43:47;;;;;;;10.43;7.30;;;;;;;10.40;100.00;102182.00;5068115;28;20428;-70
2022/06/05 01:46:29;;;;;;;9.90;8.07;;;;;;;10.67;100.00;102220.25;5065958;28;20448;-70
2022/06/05 01:49:21;;;;;;;10.57;7.23;;;;;;;10.89;100.00;102252.84;5070965;28;20865;-70
2022/06/05 01:51:59;;;;;;;7.20;6.50;;;;;;;10.97;100.00;102240.25;5064309;28;20447;-70
2022/06/05 01:54:34;;;;;;;11.60;7.03;;;;;;;10.89;100.00;102234.88;5071187;28;20434;-70
2022/06/05 01:57:04;;;;;;;10.87;7.47;;;;;;;10.30;100.00;102145.59;5064917;28;20993;-70
2022/06/05 01:59:46;;;;;;;8.97;8.07;;;;;;;10.90;100.00;102239.25;5064753;28;20475;-70
2022/06/05 02:02:17;;;;;;;9.00;7.70;;;;;;;10.95;100.00;102249.50;5068182;28;20602;-69
2022/06/05 02:04:56;;;;;;;9.03;7.37;;;;;;;10.88;100.00;102246.66;5064607;28;20457;-70
2022/06/05 02:07:30;;;;;;;8.70;6.80;;;;;;;10.57;100.00;102182.03;5068891;28;20433;-70
2022/06/05 02:10:01;;;;;;;8.97;6.97;;;;;;;10.56;100.00;102186.56;5067178;28;20546;-70
2022/06/05 02:12:27;;;;;;;9.53;7.43;;;;;;;10.70;100.00;102197.63;5069896;28;20461;-69
2022/06/05 02:14:52;;;;;;;9.37;7.20;;;;;;;10.93;100.00;102241.59;5067636;28;20469;-70
2022/06/05 02:17:18;;;;;;;8.40;7.60;;;;;;;10.89;100.00;102228.69;5065838;28;20542;-69
2022/06/05 02:19:44;;;;;;;7.80;6.90;;;;;;;10.76;100.00;102207.69;5064788;28;20183;-69
2022/06/05 02:22:21;;;;;;;8.47;7.30;;;;;;;10.93;100.00;102227.34;5066128;28;20190;-70
2022/06/05 02:24:47;;;;;;;13.07;7.57;;;;;;;10.99;100.00;102227.53;5064472;28;20547;-70
2022/06/05 02:27:13;;;;;;;9.67;7.50;;;;;;;11.01;100.00;102232.72;5066274;28;20457;-69
2022/06/05 02:29:39;;;;;;;8.77;6.63;;;;;;;10.99;100.00;102223.97;5066163;28;20405;-70
2022/06/05 02:32:29;;;;;;;10.37;7.50;;;;;;;10.85;100.00;102212.09;5065151;28;20229;-70
2022/06/05 02:35:27;;;;;;;9.70;6.27;;;;;;;10.98;100.00;102222.31;5068023;28;20872;-70
2022/06/05 02:38:17;;;;;;;8.73;6.43;;;;;;;11.07;100.00;102226.66;5062070;28;20448;-69
2022/06/05 02:40:53;;;;;;;9.17;6.00;;;;;;;11.05;100.00;102224.16;5065197;28;20508;-70
2022/06/05 02:44:28;;;;;;;7.67;6.10;;;;;;;10.92;100.00;102201.50;5069326;28;20934;-70
2022/06/05 02:46:40;;;;;;;6.93;5.80;;;;;;;11.04;100.00;102219.78;5068589;28;20525;-69
2022/06/05 02:49:15;;;;;;;7.37;5.83;;;;;;;10.88;100.00;102201.00;5068041;28;20452;-70
2022/06/05 02:51:44;;;;;;;7.80;6.60;;;;;;;11.01;100.00;102216.59;5069887;28;20463;-70
2022/06/05 02:54:22;;;;;;;6.37;5.73;;;;;;;11.11;100.00;102219.09;5068890;28;20444;-70
2022/06/05 02:56:47;;;;;;;9.40;6.03;;;;;;;11.17;100.00;102218.44;5071133;28;20835;-69
2022/06/05 02:59:13;;;;;;;11.10;6.30;;;;;;;11.15;100.00;102218.59;5068988;28;21021;-69
2022/06/05 03:04:22;;;;;;;9.87;6.73;;;;;;;10.64;100.00;102142.78;5073883;28;20657;-69
2022/06/05 03:06:48;;;;;;;7.90;6.00;;;;;;;10.86;100.00;102184.22;5068116;28;20714;-69
2022/06/05 03:09:15;;;;;;;12.63;6.50;;;;;;;10.86;100.00;102176.16;5069712;28;20194;-69
2022/06/05 03:11:42;;;;;;;6.90;6.20;;;;;;;10.84;100.00;102176.31;5067460;28;20305;-69
2022/06/05 03:14:08;;;;;;;7.87;5.90;;;;;;;10.92;100.00;102183.53;5071363;28;20449;-70
2022/06/05 03:16:33;;;;;;;7.93;6.27;;;;;;;10.83;100.00;102173.81;5066944;28;20502;-69
2022/06/05 03:18:59;;;;;;;6.57;5.90;;;;;;;11.08;100.00;102218.44;5070415;28;20183;-71
2022/06/05 03:21:24;;;;;;;7.03;5.70;;;;;;;10.79;100.00;102126.84;5069816;28;20670;-69
2022/06/05 03:23:49;;;;;;;6.40;5.80;;;;;;;10.86;100.00;102130.53;5073643;28;27089;-69
2022/06/05 03:26:15;;;;;;;7.93;5.50;;;;;;;11.21;100.00;102183.00;5069804;28;20230;-69
2022/06/05 03:28:40;;;;;;;6.90;6.30;;;;;;;11.24;100.00;102180.00;5069087;28;20276;-69
2022/06/05 03:31:07;;;;;;;9.40;7.00;;;;;;;11.18;100.00;102175.31;5069919;28;20581;-70
2022/06/05 03:33:34;;;;;;;7.03;6.37;;;;;;;11.06;100.00;102131.84;5065953;28;20187;-70
2022/06/05 03:35:59;;;;;;;10.00;7.50;;;;;;;11.17;100.00;102132.53;5069683;28;21082;-70
2022/06/05 03:38:26;;;;;;;7.47;6.77;;;;;;;11.15;100.00;102115.72;5070515;28;20536;-70
2022/06/05 03:40:51;;;;;;;9.47;7.10;;;;;;;11.29;100.00;102125.75;5067958;28;20184;-70
2022/06/05 03:43:17;;;;;;;7.43;6.73;;;;;;;11.06;100.00;102078.16;5071891;28;20812;-70
2022/06/05 03:45:43;;;;;;;9.40;6.50;;;;;;;11.38;100.00;102135.47;5063901;28;20218;-70
2022/06/05 03:48:09;;;;;;;12.00;8.07;;;;;;;11.54;100.00;102153.38;5069080;28;20453;-70
2022/06/05 03:50:38;;;;;;;8.13;6.20;;;;;;;11.47;100.00;102128.22;5063770;28;20195;-70
2022/06/05 03:53:04;;;;;;;8.80;7.10;;;;;;;11.65;100.00;102157.53;5064961;28;20436;-70
2022/06/05 03:55:30;;;;;;;8.33;7.50;;;;;;;11.37;100.00;102096.19;5067678;28;20537;-70
2022/06/05 03:57:55;;;;;;;8.40;7.50;;;;;;;11.40;100.00;102082.41;5063613;28;20444;-70
2022/06/05 04:00:22;;;;;;;8.40;7.23;;;;;;;11.46;100.00;102084.41;5060750;28;20190;-70
2022/06/05 04:02:49;;;;;;;11.67;7.10;;;;;;;11.81;100.00;102124.41;5061525;28;20188;-70
2022/06/05 04:05:16;;;;;;;8.97;7.30;;;;;;;11.88;100.00;102136.16;5063304;28;20460;-70
2022/06/05 04:07:42;;;;;;;9.90;7.60;;;;;;;12.07;100.00;102143.78;5065280;28;20441;-70
2022/06/05 04:10:10;;;;;;;8.67;7.13;;;;;;;11.68;100.00;102066.66;5062377;28;20468;-70
2022/06/05 04:12:36;;;;;;;8.53;7.73;;;;;;;11.74;100.00;102054.34;5066516;28;20206;-70
2022/06/05 04:15:01;;;;;;;9.80;7.80;;;;;;;12.30;100.00;102138.44;5068191;28;20932;-70
2022/06/05 04:17:26;;;;;;;7.93;7.13;;;;;;;11.90;100.00;102066.91;5066254;28;20186;-70
2022/06/05 04:19:53;;;;;;;8.87;7.97;;;;;;;12.42;100.00;102131.63;5062125;28;20185;-70
2022/06/05 04:22:18;;;;;;;9.40;8.10;;;;;;;12.15;100.00;102087.25;5062951;28;20194;-70
2022/06/05 04:24:44;;;;;;;8.10;7.30;;;;;;;12.45;100.00;102130.41;5063232;28;20513;-70
2022/06/05 04:27:09;;;;;;;9.13;8.20;;;;;;;12.04;100.00;102046.50;5068648;28;20492;-70
2022/06/05 04:29:35;;;;;;;10.20;9.00;;;;;;;12.31;100.00;102082.75;5070986;28;20269;-70
2022/06/05 04:32:00;;;;;;;10.00;7.13;;;;;;;12.57;100.00;102109.31;5064874;28;20190;-70
2022/06/05 04:34:26;;;;;;;13.03;8.10;;;;;;;12.68;100.00;102134.97;5070656;28;20219;-70
2022/06/05 04:36:52;;;;;;;11.70;8.60;;;;;;;12.60;100.00;102117.00;5065653;28;20187;-71
2022/06/05 04:39:17;;;;;;;9.97;8.53;;;;;;;12.33;100.00;102072.66;5068976;28;20440;-70
2022/06/05 04:41:43;;;;;;;9.93;8.70;;;;;;;12.61;100.00;102124.06;5066965;28;20306;-70
2022/06/05 04:44:13;;;;;;;9.73;8.60;;;;;;;12.29;100.00;102053.34;5069920;28;20237;-70
2022/06/05 04:46:38;;;;;;;9.07;8.17;;;;;;;12.29;100.00;102034.50;5068634;28;20931;-70
2022/06/05 04:49:07;;;;;;;11.63;8.47;;;;;;;12.82;100.00;102110.75;5070175;28;20441;-70
2022/06/05 04:51:36;;;;;;;11.17;8.60;;;;;;;12.88;100.00;102103.81;5068648;28;20199;-70
2022/06/05 04:54:03;;;;;;;8.60;7.80;;;;;;;12.99;100.00;102094.44;5064390;28;20453;-70
2022/06/05 04:56:29;;;;;;;10.77;8.97;;;;;;;13.02;100.00;102089.53;5072111;28;20468;-70
2022/06/05 04:58:55;;;;;;;13.63;9.27;;;;;;;12.85;100.00;102056.53;5064240;28;20456;-70
2022/06/05 05:01:25;;;;;;;11.00;9.30;;;;;;;12.44;100.00;101986.97;5069967;28;20804;-70
2022/06/05 05:03:53;;;;;;;9.53;8.40;;;;;;;13.14;100.00;102076.44;5065226;28;20440;-70
2022/06/05 05:06:19;;;;;;;10.97;8.10;;;;;;;13.15;100.00;102066.50;5068026;28;20456;-70
2022/06/05 05:08:44;;;;;;;10.03;9.07;;;;;;;13.20;100.00;102061.38;5065369;28;20428;-70
2022/06/05 05:11:10;;;;;;;10.60;9.30;;;;;;;13.34;100.00;102063.28;5066668;28;20207;-70
2022/06/05 05:13:36;;;;;;;10.17;8.63;;;;;;;13.45;100.00;102061.94;5068613;28;20631;-70
2022/06/05 05:16:02;;;;;;;10.90;9.37;;;;;;;13.46;100.00;102058.25;5065474;28;20242;-70
2022/06/05 05:18:27;;;;;;;12.47;9.73;;;;;;;13.30;100.00;102024.25;5069241;28;20436;-71
2022/06/05 05:20:53;;;;;;;12.20;9.70;;;;;;;13.67;100.00;102063.69;5068981;28;20424;-70
2022/06/05 05:23:19;;;;;;;10.60;9.33;;;;;;;13.80;100.00;102063.00;5070825;28;20213;-71
2022/06/05 05:25:46;;;;;;;9.00;8.10;;;;;;;13.78;100.00;102040.78;5070460;28;20217;-71
2022/06/05 05:28:12;;;;;;;10.40;9.10;;;;;;;13.86;100.00;102035.28;5069614;28;20865;-71
2022/06/05 05:30:42;;;;;;;13.77;11.10;;;;;;;13.99;100.00;102038.09;5067025;28;20465;-71
2022/06/05 05:33:08;;;;;;;15.70;9.77;;;;;;;13.50;100.00;101951.72;5072801;28;20462;-71
2022/06/05 05:35:34;;;;;;;10.80;9.80;;;;;;;14.14;100.00;102029.94;5074595;28;20440;-71
2022/06/05 05:37:59;;;;;;;10.40;9.40;;;;;;;13.60;100.00;101936.06;5069111;28;20452;-71
2022/06/05 05:43:08;;;;;;;9.70;8.70;;;;;;;14.23;100.00;102028.78;5065619;28;20274;-72
2022/06/05 05:45:34;;;;;;;10.07;8.97;;;;;;;14.08;100.00;101990.25;5059807;28;20953;-72
2022/06/05 05:47:59;;;;;;;9.67;8.77;;;;;;;13.76;100.00;101940.34;5062671;28;20191;-72
2022/06/05 05:50:25;;;;;;;10.90;9.60;;;;;;;13.99;100.00;101959.88;5058493;28;20213;-72
2022/06/05 05:52:50;;;;;;;11.13;9.27;;;;;;;14.36;100.00;102014.56;5065044;28;20191;-70
2022/06/05 05:55:19;;;;;;;9.03;7.83;;;;;;;14.34;100.00;101994.19;5063278;28;20206;-73
2022/06/05 05:57:46;;;;;;;10.60;9.30;;;;;;;14.36;100.00;101984.03;5052891;28;20734;-72
2022/06/05 06:00:14;;;;;;;9.23;8.33;;;;;;;14.50;100.00;101998.47;5068672;28;20461;-72
2022/06/05 06:02:41;;;;;;;9.73;8.20;;;;;;;14.66;100.00;102009.81;5057777;28;20445;-72
2022/06/05 06:05:08;;;;;;;9.43;7.63;;;;;;;14.73;100.00;102006.38;5043016;28;20470;-72
2022/06/05 06:07:34;;;;;;;9.03;8.13;;;;;;;14.56;100.00;101949.97;5062119;28;20441;-72
2022/06/05 06:09:59;;;;;;;8.53;7.63;;;;;;;14.93;100.00;102001.91;5053255;28;20471;-72
2022/06/05 06:12:25;;;;;;;9.80;8.77;;;;;;;15.00;100.00;101988.44;5042691;28;20175;-72
2022/06/05 06:14:51;;;;;;;11.77;8.53;;;;;;;15.09;100.00;102001.56;5052948;28;20702;-72
2022/06/05 06:17:17;;;;;;;8.30;7.60;;;;;;;15.22;100.00;101999.97;5069272;28;20235;-72
2022/06/05 06:19:42;;;;;;;9.07;8.17;;;;;;;15.19;100.00;101982.28;5068304;28;20463;-72
2022/06/05 06:22:08;;;;;;;8.93;7.00;;;;;;;15.38;100.00;101981.50;5070550;28;20191;-71
2022/06/05 06:24:33;;;;;;;9.50;8.27;;;;;;;15.25;100.00;101950.94;5060831;28;20299;-71
2022/06/05 06:26:59;;;;;;;8.93;8.10;;;;;;;15.51;100.00;101974.50;5060802;28;20275;-71
2022/06/05 06:29:24;;;;;;;8.70;7.90;;;;;;;15.60;100.00;101966.00;5063633;28;20193;-71
2022/06/05 06:31:50;;;;;;;10.23;8.43;;;;;;;15.54;100.00;101952.47;5043268;28;20210;-71
2022/06/05 06:34:15;;;;;;;8.73;7.80;;;;;;;15.51;100.00;101928.53;5061570;28;20191;-71
2022/06/05 06:36:41;;;;;;;7.43;6.73;;;;;;;15.85;100.00;101964.59;5055110;28;20558;-71
2022/06/05 06:39:06;;;;;;;8.70;7.90;;;;;;;15.85;100.00;101960.00;5065068;28;20665;-71
2022/06/05 06:41:32;;;;;;;8.10;7.40;;;;;;;15.37;100.00;101879.00;5062767;28;20206;-71
2022/06/05 06:43:58;;;;;;;11.63;7.20;;;;;;;15.63;100.00;101891.72;5065580;28;20213;-72
2022/06/05 06:46:23;;;;;;;10.27;7.50;;;;;;;15.96;100.00;101945.03;5062153;28;20219;-72
2022/06/05 06:48:49;;;;;;;7.93;7.03;;;;;;;16.00;100.00;101949.84;5057900;28;20202;-73
2022/06/05 06:51:16;;;;;;;8.70;7.57;;;;;;;15.94;100.00;101923.63;5058278;28;20218;-73
2022/06/05 06:53:42;;;;;;;7.63;6.90;;;;;;;16.18;100.00;101943.81;5059850;28;20202;-73
2022/06/05 06:56:23;;;;;;;8.33;7.10;;;;;;;15.75;100.00;101865.75;5066650;28;20464;-73
2022/06/05 06:58:49;;;;;;;8.33;6.97;;;;;;;15.78;100.00;101867.22;5066342;28;20440;-74
2022/06/05 07:01:15;;;;;;;7.93;7.20;;;;;;;15.90;100.00;101879.06;5065515;28;20443;-73
2022/06/05 07:03:40;;;;;;;9.27;6.30;;;;;;;16.29;100.00;101945.06;5056831;28;20187;-72
2022/06/05 07:06:09;;;;;;;7.80;6.53;;;;;;;16.29;100.00;101936.94;5066252;28;20472;-73
2022/06/05 07:08:34;;;;;;;6.30;5.80;;;;;;;16.32;100.00;101933.81;5064805;28;20464;-72
2022/06/05 07:11:00;;;;;;;6.10;5.50;;;;;;;16.42;100.00;101936.88;5066042;28;20504;-72
2022/06/05 07:13:26;;;;;;;7.17;6.10;;;;;;;16.46;100.00;101927.31;5063042;28;20210;-72
2022/06/05 07:15:52;;;;;;;7.00;6.30;;;;;;;16.52;100.00;101927.50;5062493;28;20280;-71
2022/06/05 07:18:18;;;;;;;6.77;6.17;;;;;;;16.55;100.00;101918.94;5063106;28;20272;-71
2022/06/05 07:20:44;;;;;;;6.67;6.07;;;;;;;16.48;100.00;101891.88;5062379;28;20186;-73
2022/06/05 07:23:11;;;;;;;8.17;6.80;;;;;;;16.57;100.00;101923.09;5059642;28;20642;-71
2022/06/05 07:25:37;;;;;;;6.70;5.80;;;;;;;16.69;100.00;101907.88;5070006;28;20473;-71
2022/06/05 07:28:04;;;;;;;5.70;5.20;;;;;;;16.42;100.00;101842.13;5060693;28;22140;-72
2022/06/05 07:30:31;;;;;;;7.13;5.40;;;;;;;16.90;100.00;101914.09;5068136;28;20460;-72
2022/06/05 07:32:57;;;;;;;5.97;5.37;;;;;;;16.92;100.00;101904.72;5064098;28;20454;-72
2022/06/05 07:35:23;;;;;;;7.33;6.30;;;;;;;16.85;100.00;101895.75;5064984;28;20472;-71
2022/06/05 07:37:49;;;;;;;6.40;5.60;;;;;;;16.82;100.00;101860.97;5060074;28;20454;-72
2022/06/05 07:40:15;;;;;;;5.27;4.77;;;;;;;16.90;100.00;101870.75;5063324;28;20437;-73
2022/06/05 07:42:43;;;;;;;6.00;5.50;;;;;;;17.11;100.00;101893.97;5066209;28;20234;-70
2022/06/05 07:45:11;;;;;;;6.50;5.73;;;;;;;16.90;100.00;101836.34;5066128;28;20456;-69
2022/06/05 07:47:37;;;;;;;5.90;5.30;;;;;;;17.21;100.00;101886.19;5061620;28;20494;-71
2022/06/05 07:50:03;;;;;;;6.17;5.57;;;;;;;17.28;100.00;101891.59;5064088;28;20973;-71
2022/06/05 07:55:13;;;;;;;6.43;5.67;;;;;;;17.14;100.00;101826.59;5057613;28;20448;-72
2022/06/05 07:57:38;;;;;;;5.80;5.10;;;;;;;17.44;100.00;101863.94;5056686;28;21175;-73
2022/06/05 08:00:07;;;;;;;5.40;4.90;;;;;;;17.54;100.00;101874.31;5070231;28;20269;-73
2022/06/05 08:02:34;;;;;;;5.70;5.17;;;;;;;17.42;100.00;101838.09;5068200;28;20191;-74
2022/06/05 08:04:59;;;;;;;5.87;5.27;;;;;;;17.51;100.00;101820.50;5063465;28;20468;-72
2022/06/05 08:07:29;;;;;;;6.43;5.83;;;;;;;17.85;100.00;101865.34;5068337;28;20831;-74
2022/06/05 08:09:55;;;;;;;5.63;5.13;;;;;;;17.68;100.00;101827.03;5065409;28;20237;-72
2022/06/05 08:12:22;;;;;;;5.90;5.40;;;;;;;17.77;100.00;101828.41;5043695;28;20472;-72
2022/06/05 08:14:50;;;;;;;6.33;5.77;;;;;;;18.06;100.00;101848.63;5054671;28;20500;-72
2022/06/05 08:17:19;;;;;;;6.17;5.57;;;;;;;17.98;100.00;101848.09;5050079;28;20440;-73
2022/06/05 08:19:45;;;;;;;6.90;4.70;;;;;;;18.11;100.00;101845.25;5047546;28;20552;-71
2022/06/05 08:22:12;;;;;;;4.67;4.27;;;;;;;18.28;100.00;101835.47;5053457;28;20445;-71
2022/06/05 08:24:39;;;;;;;6.13;4.70;;;;;;;18.19;100.00;101816.97;5060945;28;21071;-70
2022/06/05 08:27:10;;;;;;;4.93;4.53;;;;;;;18.51;100.00;101836.63;5060707;28;21078;-73
2022/06/05 08:29:35;;;;;;;5.10;4.63;;;;;;;18.05;100.00;101741.09;5058520;28;21062;-71
2022/06/05 08:32:01;;;;;;;4.90;4.50;;;;;;;18.46;100.00;101822.94;5054082;28;20452;-70
2022/06/05 08:34:26;;;;;;;5.53;5.03;;;;;;;18.36;100.00;101779.16;5060197;28;20203;-73
2022/06/05 08:41:26;;;;;;;6.53;5.93;;;;;;;18.70;100.00;101813.00;5058068;28;20191;-71
2022/06/05 08:42:59;;;;;;;4.30;3.90;;;;;;;18.71;100.00;101801.06;5066621;28;20440;-71
2022/06/05 08:45:31;;;;;;;5.53;5.03;;;;;;;18.66;100.00;101795.50;5069820;28;20665;-72
2022/06/05 08:48:02;;;;;;;5.17;4.47;;;;;;;18.54;100.00;101746.53;5073091;28;20432;-72
2022/06/05 08:50:38;;;;;;;4.80;4.40;;;;;;;18.96;100.00;101790.09;5073291;28;20488;-72
2022/06/05 08:53:50;;;;;;;4.90;4.40;;;;;;;18.83;100.00;101744.06;5070483;28;20501;-71
2022/06/05 08:56:30;;;;;;;5.60;4.40;;;;;;;18.63;100.00;101707.13;5050124;28;20986;-72
2022/06/05 08:59:20;;;;;;;5.40;4.90;;;;;;;19.14;100.00;101767.44;5071360;28;20532;-71
2022/06/05 09:01:55;;;;;;;4.63;4.10;;;;;;;19.01;100.00;101745.91;5073959;28;20929;-71
2022/06/05 09:04:32;;;;;;;4.47;4.07;;;;;;;19.25;100.00;101760.38;5072622;28;20931;-71
2022/06/05 09:07:04;;;;;;;6.93;4.13;;;;;;;19.28;100.00;101743.59;5069918;28;20416;-71
2022/06/05 09:09:44;;;;;;;5.37;4.10;;;;;;;18.51;100.00;101603.88;5074579;28;20460;-73
2022/06/05 09:12:28;;;;;;;5.73;4.47;;;;;;;19.32;100.00;101731.16;5073988;28;20434;-72
2022/06/05 09:15:00;;;;;;;4.20;3.80;;;;;;;19.30;100.00;101733.31;5072722;28;20456;-70
2022/06/05 09:17:27;;;;;;;5.60;4.40;;;;;;;18.95;100.00;101661.50;5073438;28;20904;-69
2022/06/05 09:19:55;;;;;;;6.93;4.47;;;;;;;19.47;100.00;101720.66;5076050;28;20444;-70
2022/06/05 09:22:37;;;;;;;4.23;3.40;;;;;;;19.41;100.00;101718.84;5069719;28;20446;-71
2022/06/05 09:25:08;;;;;;;4.17;3.47;;;;;;;19.52;100.00;101722.66;5072536;28;20447;-71
2022/06/05 09:27:43;;;;;;;4.20;3.40;;;;;;;19.60;100.00;101711.41;5076353;28;20416;-71
2022/06/05 09:30:16;;;;;;;4.80;3.70;;;;;;;19.63;100.00;101705.50;5075892;28;20506;-71
2022/06/05 09:33:19;;;;;;;4.90;4.40;;;;;;;19.73;100.00;101694.88;5073300;28;20432;-72
2022/06/05 09:36:00;;;;;;;4.27;3.87;;;;;;;19.85;100.00;101694.84;5075602;28;20804;-72
2022/06/05 09:38:35;;;;;;;4.93;4.40;;;;;;;19.90;100.00;101697.66;5070668;28;20440;-72
2022/06/05 09:41:19;;;;;;;4.13;3.83;;;;;;;19.74;100.00;101692.97;5075829;28;20415;-72
2022/06/05 09:43:53;;;;;;;4.10;3.70;;;;;;;19.95;100.00;101681.44;5073592;28;20939;-70
2022/06/05 09:46:23;;;;;;;4.60;4.20;;;;;;;19.65;100.00;101651.69;5076786;28;20484;-71
2022/06/05 09:48:52;;;;;;;4.80;4.03;;;;;;;19.93;100.00;101675.44;5069012;28;20838;-70
2022/06/05 09:51:19;;;;;;;5.63;4.67;;;;;;;19.71;100.00;101658.06;5067947;28;20934;-70
2022/06/05 09:53:59;;;;;;;4.93;4.43;;;;;;;20.15;100.00;101678.31;5061552;28;20506;-72
2022/06/05 09:59:39;;;;;;;3.90;3.57;;;;;;;20.23;100.00;101664.31;5057319;28;20435;-70
2022/06/05 10:02:07;;;;;;;4.53;3.83;;;;;;;20.29;100.00;101649.69;5064921;28;20432;-70
2022/06/05 10:04:34;;;;;;;4.53;4.13;;;;;;;20.13;100.00;101664.09;5066800;28;21342;-69
2022/06/05 10:07:08;;;;;;;5.63;4.07;;;;;;;20.13;100.00;101636.03;5062590;28;20798;-70
2022/06/05 10:09:42;;;;;;;4.37;3.97;;;;;;;19.69;100.00;101564.94;5062550;28;20428;-71
2022/06/05 10:12:13;;;;;;;3.80;3.37;;;;;;;20.29;100.00;101651.59;5066648;28;20441;-72
2022/06/05 10:14:51;;;;;;;3.80;3.47;;;;;;;20.43;100.00;101652.13;5070929;28;20896;-70
2022/06/05 10:17:25;;;;;;;4.70;3.53;;;;;;;20.58;100.00;101655.16;5075555;28;20960;-72
2022/06/05 10:20:14;;;;;;;4.27;3.87;;;;;;;20.59;100.00;101634.19;5071898;28;20433;-72
2022/06/05 10:22:39;;;;;;;3.73;3.43;;;;;;;20.82;100.00;101655.84;5076181;28;20444;-72
2022/06/05 10:25:22;;;;;;;8.30;4.27;;;;;;;20.88;100.00;101649.38;5070992;28;20464;-74
2022/06/05 10:27:55;;;;;;;4.40;3.97;;;;;;;21.02;100.00;101647.16;5085058;28;20275;-75
2022/06/05 10:30:26;;;;;;;4.73;4.03;;;;;;;20.81;100.00;101621.47;5063076;28;20467;-74
2022/06/05 10:33:06;;;;;;;3.70;3.40;;;;;;;21.12;100.00;101639.13;5067717;28;20528;-73
2022/06/05 10:35:57;;;;;;;4.43;4.03;;;;;;;21.24;100.00;101619.94;5064829;28;20463;-73
2022/06/05 10:38:32;;;;;;;3.40;3.10;;;;;;;21.12;100.00;101647.31;5066921;28;20439;-74
2022/06/05 10:41:20;;;;;;;5.27;3.90;;;;;;;21.13;100.00;101651.69;5066617;28;20487;-73
2022/06/05 10:44:03;;;;;;;3.63;3.33;;;;;;;21.22;100.00;101643.91;5045519;28;20500;-73
2022/06/05 10:46:30;;;;;;;4.33;3.50;;;;;;;21.06;100.00;101592.94;5065088;28;21011;-73
2022/06/05 10:49:24;;;;;;;4.87;4.47;;;;;;;21.39;100.00;101641.19;5066089;28;20448;-72
2022/06/05 10:52:05;;;;;;;4.00;3.60;;;;;;;21.51;100.00;101646.53;5065671;28;20603;-75
2022/06/05 10:54:46;;;;;;;3.70;3.40;;;;;;;21.61;100.00;101643.91;5069820;28;20468;-74
2022/06/05 10:57:18;;;;;;;3.57;3.10;;;;;;;21.28;100.00;101609.34;5067551;28;20436;-78
2022/06/05 11:00:17;;;;;;;4.00;3.60;;;;;;;21.62;100.00;101638.22;5067235;28;20873;-76
2022/06/05 11:03:04;;;;;;;3.80;3.40;;;;;;;21.88;100.00;101635.81;5067593;28;20456;-74
2022/06/05 11:05:42;;;;;;;3.67;3.37;;;;;;;21.49;100.00;101610.47;5072540;28;20453;-72
2022/06/05 11:08:31;;;;;;;4.03;3.10;;;;;;;21.74;100.00;101613.53;5069783;28;20471;-72
2022/06/05 11:14:25;;;;;;;3.90;3.17;;;;;;;21.97;100.00;101612.44;5067761;28;20432;-73
2022/06/05 11:16:50;;;;;;;4.50;3.70;;;;;;;21.90;100.00;101611.81;5067445;28;20421;-75
2022/06/05 11:19:20;;;;;;;2.80;2.60;;;;;;;22.06;100.00;101613.59;5073769;28;20942;-76
2022/06/05 11:21:49;;;;;;;3.57;2.87;;;;;;;22.00;100.00;101600.97;5070255;28;20274;-80
2022/06/05 11:24:29;;;;;;;2.90;2.70;;;;;;;21.80;100.00;101598.84;5067069;28;20445;-76
2022/06/05 11:27:20;;;;;;;3.30;3.00;;;;;;;21.91;100.00;101610.72;5064911;28;20487;-76
2022/06/05 11:29:53;;;;;;;3.90;3.20;;;;;;;22.09;100.00;101593.16;5057712;28;20462;-80
2022/06/05 11:32:25;;;;;;;3.77;3.30;;;;;;;21.66;100.00;101548.44;5064336;28;20921;-76
2022/06/05 11:34:51;;;;;;;3.30;3.00;;;;;;;21.96;100.00;101591.66;5065342;28;20598;-75
2022/06/05 11:37:16;;;;;;;3.43;3.13;;;;;;;21.88;100.00;101582.00;5060027;28;20456;-75
2022/06/05 11:40:26;;;;;;;3.20;3.00;;;;;;;21.91;100.00;101577.13;5056285;28;20197;-78
2022/06/05 11:42:58;;;;;;;3.20;2.90;;;;;;;21.92;100.00;101568.66;5048697;28;20194;-77
2022/06/05 11:45:30;;;;;;;3.50;3.20;;;;;;;21.91;100.00;101545.19;5069511;28;20455;-78
2022/06/05 11:48:10;;;;;;;3.03;2.83;;;;;;;21.91;100.00;101541.63;5068272;28;20481;-80
2022/06/05 11:50:38;;;;;;;3.87;3.20;;;;;;;22.02;100.00;101549.66;5070503;28;20555;-79
2022/06/05 11:53:39;;;;;;;2.97;2.67;;;;;;;22.04;100.00;101531.13;5068469;28;20485;-76